createdAt,value
2022-12-08T00:04:55.982Z,42.20
2022-12-08T00:10:47.188Z,42.31
2022-12-08T00:16:02.348Z,42.13
2022-12-08T00:21:24.161Z,42.06
2022-12-08T00:26:46.126Z,41.97
2022-12-08T00:32:07.859Z,42.14
2022-12-08T00:37:29.695Z,42.15
2022-12-08T00:42:51.349Z,42.32
2022-12-08T00:48:13.018Z,42.25
2022-12-08T00:53:34.701Z,42.37
2022-12-08T00:58:56.471Z,42.44
2022-12-08T01:04:19.645Z,42.35
2022-12-08T01:09:41.329Z,42.05
2022-12-08T01:15:03.147Z,42.00
2022-12-08T01:20:24.975Z,42.44
2022-12-08T01:25:46.794Z,42.21
2022-12-08T01:31:19.716Z,42.10
2022-12-08T01:36:42.382Z,42.11
2022-12-08T01:42:04.188Z,42.28
2022-12-08T01:47:30.381Z,42.33
2022-12-08T01:53:06.074Z,41.97
2022-12-08T01:58:34.751Z,42.04
2022-12-08T02:04:02.273Z,42.16
2022-12-08T02:09:24.696Z,42.17
2022-12-08T02:14:46.403Z,42.02
2022-12-08T02:20:53.539Z,42.42
2022-12-08T02:26:33.638Z,42.35
2022-12-08T02:32:22.870Z,41.95
2022-12-08T02:37:55.758Z,41.97
2022-12-08T02:43:26.180Z,41.90
2022-12-08T02:48:48.581Z,42.24
2022-12-08T02:54:10.654Z,42.21
2022-12-08T03:00:06.063Z,41.88
2022-12-08T03:06:05.795Z,42.10
2022-12-08T03:11:40.240Z,41.83
2022-12-08T03:17:03.009Z,41.87
2022-12-08T03:22:27.383Z,42.20
2022-12-08T03:27:50.891Z,42.21
2022-12-08T03:33:22.107Z,41.80
2022-12-08T03:38:46.269Z,42.17
2022-12-08T03:44:07.949Z,42.10
2022-12-08T03:49:29.620Z,41.99
2022-12-08T03:54:51.336Z,42.16
2022-12-08T04:00:15.949Z,41.78
2022-12-08T04:05:37.646Z,41.67
2022-12-08T04:10:59.313Z,41.89
2022-12-08T04:16:24.076Z,41.78
2022-12-08T04:21:46.580Z,42.09
2022-12-08T04:27:08.309Z,41.79
2022-12-08T04:32:29.976Z,41.76
2022-12-08T04:37:52.153Z,41.93
2022-12-08T04:43:13.832Z,41.99
2022-12-08T04:48:37.798Z,41.65
2022-12-08T04:53:59.465Z,41.69
2022-12-08T04:59:21.093Z,42.07
2022-12-08T05:04:42.782Z,41.55
2022-12-08T05:10:05.387Z,41.96
2022-12-08T05:15:27.426Z,41.86
2022-12-08T05:20:49.110Z,41.93
2022-12-08T05:26:10.752Z,41.82
2022-12-08T05:31:32.563Z,41.91
2022-12-08T05:36:54.632Z,41.81
2022-12-08T05:42:20.466Z,41.65
2022-12-08T05:47:45.465Z,41.76
2022-12-08T05:53:07.120Z,41.83
2022-12-08T05:58:28.811Z,41.94
2022-12-08T06:03:51.298Z,41.91
2022-12-08T06:09:13.240Z,41.54
2022-12-08T06:14:34.901Z,41.45
2022-12-08T06:19:56.633Z,41.84
2022-12-08T06:25:18.366Z,41.43
2022-12-08T06:30:40.019Z,41.56
2022-12-08T06:36:01.731Z,41.86
2022-12-08T06:41:24.321Z,41.40
2022-12-08T06:46:46.002Z,41.53
2022-12-08T06:52:07.724Z,41.87
2022-12-08T06:57:29.467Z,41.81
2022-12-08T07:02:51.428Z,41.60
2022-12-08T07:08:13.236Z,41.55
2022-12-08T07:13:34.972Z,41.61
2022-12-08T07:18:56.706Z,41.49
2022-12-08T07:24:18.756Z,41.59
2022-12-08T07:29:40.525Z,41.34
2022-12-08T07:35:02.233Z,41.75
2022-12-08T07:40:24.092Z,41.68
2022-12-08T07:45:46.042Z,41.45
2022-12-08T07:51:07.790Z,41.80
2022-12-08T07:56:29.508Z,41.77
2022-12-08T08:02:13.090Z,41.33
2022-12-08T08:07:33.413Z,41.35
2022-12-08T08:12:55.116Z,41.37
2022-12-08T08:18:16.980Z,41.32
2022-12-08T08:23:38.694Z,41.19
2022-12-08T08:29:00.439Z,41.32
2022-12-08T08:34:22.152Z,41.31
2022-12-08T08:39:43.974Z,41.68
2022-12-08T08:45:06.093Z,41.53
2022-12-08T08:50:32.860Z,41.27
2022-12-08T08:55:57.648Z,41.44
2022-12-08T09:01:24.308Z,41.20
2022-12-08T09:06:46.305Z,40.99
2022-12-08T09:12:08.542Z,41.04
2022-12-08T09:17:30.396Z,41.02
2022-12-08T09:22:52.143Z,41.00
2022-12-08T09:28:14.759Z,40.98
2022-12-08T09:33:36.498Z,40.94
2022-12-08T09:38:58.527Z,40.94
2022-12-08T09:44:42.187Z,41.41
2022-12-08T09:50:11.820Z,41.41
2022-12-08T09:55:45.514Z,41.14
2022-12-08T10:01:10.974Z,41.12
2022-12-08T10:06:46.732Z,41.41
2022-12-08T10:12:21.400Z,40.89
2022-12-08T10:17:49.704Z,41.33
2022-12-08T10:23:39.075Z,40.97
2022-12-08T10:29:02.994Z,41.34
2022-12-08T10:34:25.222Z,41.25
2022-12-08T10:39:47.068Z,40.98
2022-12-08T10:45:08.758Z,40.98
2022-12-08T10:50:35.712Z,40.91
2022-12-08T10:56:03.309Z,40.92
2022-12-08T11:01:28.239Z,40.91
2022-12-08T11:06:51.372Z,40.73
2022-12-08T11:12:17.882Z,41.23
2022-12-08T11:17:39.710Z,40.87
2022-12-08T11:23:01.464Z,40.72
2022-12-08T11:28:25.066Z,40.88
2022-12-08T11:33:47.629Z,40.58
2022-12-08T11:39:12.676Z,41.03
2022-12-08T11:44:57.882Z,40.73
2022-12-08T11:50:30.006Z,40.90
2022-12-08T11:55:58.670Z,40.58
2022-12-08T12:01:23.558Z,40.80
2022-12-08T12:07:12.668Z,40.46
2022-12-08T12:12:39.424Z,40.71
2022-12-08T12:18:41.021Z,40.61
2022-12-08T12:24:20.865Z,40.26
2022-12-08T12:29:55.524Z,40.26
2022-12-08T12:35:34.722Z,40.25
2022-12-08T12:41:03.048Z,40.54
2022-12-08T12:46:27.328Z,40.45
2022-12-08T12:51:54.792Z,40.21
2022-12-08T12:57:22.651Z,40.09
2022-12-08T13:02:44.460Z,40.24
2022-12-08T13:08:24.577Z,39.95
2022-12-08T13:13:56.916Z,40.36
2022-12-08T13:19:18.657Z,40.28
2022-12-08T13:24:40.344Z,40.42
2022-12-08T13:30:39.319Z,40.20
2022-12-08T13:36:10.880Z,39.70
2022-12-08T13:41:41.817Z,40.01
2022-12-08T13:59:30.494Z,39.81
2022-12-08T14:10:34.816Z,39.58
2022-12-08T14:15:56.632Z,39.86
2022-12-08T14:21:21.092Z,39.86
2022-12-08T14:26:47.655Z,39.88
2022-12-08T14:32:26.249Z,39.50
2022-12-08T14:37:50.452Z,40.09
2022-12-08T14:43:14.961Z,39.95
2022-12-08T14:48:36.639Z,40.05
2022-12-08T14:54:09.584Z,40.04
2022-12-08T14:59:35.859Z,39.90
2022-12-08T15:05:04.901Z,39.92
2022-12-08T15:10:29.676Z,39.85
2022-12-08T15:15:56.530Z,40.00
2022-12-08T15:21:18.341Z,39.69
2022-12-08T15:26:48.382Z,40.07
2022-12-08T15:32:11.628Z,39.84
2022-12-08T15:37:33.980Z,39.93
2022-12-08T15:42:55.758Z,39.73
2022-12-08T15:48:22.874Z,39.77
2022-12-08T15:53:44.733Z,39.96
2022-12-08T15:59:06.432Z,40.07
2022-12-08T16:05:17.893Z,40.13
2022-12-08T16:10:22.655Z,40.08
2022-12-08T16:15:55.080Z,39.90
2022-12-08T16:21:53.442Z,39.64
2022-12-08T16:27:58.738Z,40.07
2022-12-08T16:32:44.366Z,39.73
2022-12-08T16:38:06.238Z,39.65
2022-12-08T16:43:27.872Z,39.94
2022-12-08T16:48:50.539Z,39.82
2022-12-08T16:54:12.341Z,39.59
2022-12-08T16:59:34.137Z,38.65
2022-12-08T17:04:55.872Z,38.48
2022-12-08T17:10:20.773Z,37.26
2022-12-08T17:15:42.500Z,36.93
2022-12-08T17:21:10.452Z,36.44
2022-12-08T17:26:32.228Z,36.41
2022-12-08T17:31:54.231Z,36.63
2022-12-08T17:37:17.171Z,36.40
2022-12-08T17:42:39.274Z,36.66
2022-12-08T17:48:00.960Z,37.02
2022-12-08T17:53:23.293Z,37.41
2022-12-08T17:58:47.577Z,37.66
2022-12-08T18:04:13.225Z,38.00
2022-12-08T18:09:34.968Z,37.78
2022-12-08T18:14:56.887Z,38.06
2022-12-08T18:20:18.681Z,37.98
2022-12-08T18:25:40.422Z,38.08
2022-12-08T18:31:02.170Z,38.17
2022-12-08T18:36:25.805Z,38.05
2022-12-08T18:41:47.485Z,37.88
2022-12-08T18:47:09.208Z,38.07
2022-12-08T18:52:32.235Z,37.67
2022-12-08T18:57:54.501Z,37.62
2022-12-08T19:03:16.176Z,37.94
2022-12-08T19:08:38.061Z,37.42
2022-12-08T19:13:59.884Z,37.90
2022-12-08T19:19:21.775Z,38.03
2022-12-08T19:24:44.124Z,38.12
2022-12-08T19:30:06.789Z,38.21
2022-12-08T19:35:28.666Z,38.26
2022-12-08T19:41:08.561Z,38.17
2022-12-08T19:46:32.639Z,38.28
2022-12-08T19:51:56.357Z,38.73
2022-12-08T19:57:18.089Z,38.77
2022-12-08T20:02:39.886Z,38.50
2022-12-08T20:08:01.762Z,38.11
2022-12-08T20:13:41.580Z,38.38
2022-12-08T20:19:03.722Z,38.25
2022-12-08T20:24:25.417Z,38.61
2022-12-08T20:29:47.083Z,38.75
2022-12-08T20:35:09.317Z,38.88
2022-12-08T20:40:31.202Z,39.01
2022-12-08T20:45:52.923Z,38.64
2022-12-08T20:51:17.110Z,38.13
2022-12-08T20:56:44.772Z,37.61
2022-12-08T21:02:13.452Z,36.95
2022-12-08T21:07:35.479Z,36.99
2022-12-08T21:12:57.270Z,36.53
2022-12-08T21:18:19.994Z,36.67
2022-12-08T21:23:42.799Z,36.68
2022-12-08T21:29:05.153Z,36.71
2022-12-08T21:34:31.953Z,36.98
2022-12-08T21:39:53.781Z,37.00
2022-12-08T21:45:18.130Z,36.94
2022-12-08T21:50:40.034Z,37.15
2022-12-08T21:56:01.812Z,37.96
2022-12-08T22:01:23.616Z,37.90
2022-12-08T22:06:45.972Z,38.07
2022-12-08T22:18:31.352Z,38.71
2022-12-08T22:23:53.099Z,38.54
2022-12-08T22:29:14.867Z,38.70
2022-12-08T22:34:36.761Z,38.60
2022-12-08T22:39:58.587Z,38.92
2022-12-08T22:45:20.217Z,38.66
2022-12-08T22:50:42.399Z,38.65
2022-12-08T22:56:05.527Z,38.92
2022-12-08T23:01:30.203Z,38.77
2022-12-08T23:06:52.093Z,38.92
2022-12-08T23:12:14.055Z,38.79
2022-12-08T23:17:36.176Z,38.91
2022-12-08T23:22:58.312Z,39.33
2022-12-08T23:28:20.182Z,39.17
2022-12-08T23:33:42.174Z,39.23
2022-12-08T23:39:05.093Z,38.89
2022-12-08T23:44:26.943Z,39.22
2022-12-08T23:49:48.836Z,39.38
2022-12-08T23:55:11.294Z,39.26
